Terminal Aerodrome Forecast
Issued by NWS

Home | Current Version | Previous Version | Text Only | Print | Product List | Glossary On
Versions: 1 2 3 4 5 6 7 8 9 10 11 12 13 14 15 16 17 18 19 20 21 22 23 24 25 26 27 28 29 30 31 32 33
000
FTUS46 KSGX 042010 AAA
TAFSAN
TAF AMD
KSAN 042010Z 0420/0524 30011KT P6SM FEW025 SCT035
     FM050000 29009KT P6SM BKN025
     FM050200 VRB05KT P6SM OVC022
     FM051500 VRB04KT P6SM BKN030
     FM051700 VRB04KT P6SM BKN035
     FM052000 27010KT P6SM SCT035=

USA.gov is the U.S. government's official web portal to all federal, state and local government web resources and services.